»·PEaware :: N805RJ KBIH-KPVF

N805RJ :: KBIH-KPVF

FLIGHT INFORMATION

Flight Status: Arrived
Operator: Privately registered:
United States
More flights under this callsign
Pilot: Rickie J. (22768)
Aircraft: CESSNA 172 SKYHAWK
(C172)
More flights by this aircraft type
Origin: KBIH Bishop
United States
Destination: KPVF Placerville
United States
More flights between these airports :: More routes between these airports
Route: +BIH V381 NIKOL V230 MVA V564 CHIME V494 SWR V6 CORLY
File this flight plan on PilotEdge
Remarks:
Altitude:
(Current/Filed)
12,500ft
Speed:
(Current/Filed)
120kts
Departed: 18-Mar-20 12:17 PM
Arrived: 18-Mar-20 02:38 PM
Distance/Time
Traveled:
139nm/2:21
Distance/Time
To Go:
Arrived

Flight Plot

Page will automatically refresh every two minutes.

Flight plan parsing failed; only flown route is shown


Map Options




Map Legend


Flown Route
Filed Route
Departure Airport
Arrival Airport
Navaid (VOR, NDB)
Fix

Horizontal Profiles

Position Reports

Time Latitude Longitude Heading Altitude Ground
Speed
18-Mar-20 11:16 37.369338 -118.364233 219 4128ft 0kts
18-Mar-20 11:17 37.369338 -118.364233 219 4128ft 0kts
18-Mar-20 11:18 37.369338 -118.364233 219 4128ft 0kts
18-Mar-20 11:19 37.369338 -118.364233 219 4128ft 0kts
18-Mar-20 11:20 37.369338 -118.364233 219 4128ft 0kts
18-Mar-20 11:21 37.369338 -118.364233 219 4128ft 0kts
18-Mar-20 11:22 37.369338 -118.364233 219 4128ft 0kts
18-Mar-20 11:23 37.369338 -118.364233 219 4128ft 0kts
18-Mar-20 11:24 37.369373 -118.364228 101 4128ft 2kts
18-Mar-20 11:25 37.369358 -118.364172 118 4128ft 0kts
18-Mar-20 11:26 37.369358 -118.364172 118 4128ft 0kts
18-Mar-20 11:28 37.370482 -118.365027 359 4128ft 0kts
18-Mar-20 11:28 37.370482 -118.365027 359 4128ft 0kts
18-Mar-20 11:29 37.370482 -118.365027 359 4128ft 0kts
18-Mar-20 11:30 37.370482 -118.365027 359 4128ft 0kts
18-Mar-20 11:31 37.370482 -118.365027 359 4128ft 0kts
18-Mar-20 11:32 37.370482 -118.365027 359 4128ft 0kts
18-Mar-20 11:33 37.370482 -118.365027 359 4128ft 0kts
18-Mar-20 11:34 37.370482 -118.365027 359 4128ft 0kts
18-Mar-20 11:35 37.370482 -118.365027 359 4128ft 0kts
18-Mar-20 11:36 37.370482 -118.365027 359 4128ft 0kts
18-Mar-20 11:37 37.370482 -118.365027 359 4128ft 0kts
18-Mar-20 11:38 37.370482 -118.365027 359 4128ft 0kts
18-Mar-20 11:39 37.370482 -118.365027 359 4128ft 0kts
18-Mar-20 11:40 37.370482 -118.365027 359 4128ft 0kts
18-Mar-20 11:41 37.370482 -118.365027 359 4128ft 0kts
18-Mar-20 11:42 37.370482 -118.365027 359 4128ft 0kts
18-Mar-20 11:43 37.370482 -118.365027 359 4128ft 0kts
18-Mar-20 11:44 37.370482 -118.365027 359 4128ft 0kts
18-Mar-20 11:45 37.370482 -118.365027 359 4128ft 0kts
18-Mar-20 11:46 37.370482 -118.365027 359 4128ft 0kts
18-Mar-20 11:47 37.370482 -118.365027 359 4128ft 0kts
18-Mar-20 11:48 37.370482 -118.365027 359 4128ft 0kts
18-Mar-20 11:49 37.370482 -118.365027 359 4128ft 0kts
18-Mar-20 11:50 37.370482 -118.365027 359 4128ft 0kts
18-Mar-20 11:51 37.370482 -118.365027 359 4128ft 0kts
18-Mar-20 11:52 37.370482 -118.365027 359 4128ft 0kts
18-Mar-20 11:53 37.370482 -118.365027 359 4128ft 0kts
18-Mar-20 11:54 37.370482 -118.365027 359 4128ft 0kts
18-Mar-20 11:55 37.370482 -118.365027 359 4128ft 0kts
18-Mar-20 11:56 37.370482 -118.365027 359 4128ft 0kts
18-Mar-20 11:57 37.370482 -118.365027 359 4128ft 0kts
18-Mar-20 11:58 37.370482 -118.365027 359 4128ft 0kts
18-Mar-20 11:59 37.370482 -118.365027 359 4128ft 0kts
18-Mar-20 12:00 37.370482 -118.365027 359 4128ft 0kts
18-Mar-20 12:01 37.370482 -118.365027 359 4128ft 0kts
18-Mar-20 12:02 37.370507 -118.365027 359 4128ft 0kts
18-Mar-20 12:03 37.370946 -118.365000 25 4128ft 2kts
18-Mar-20 12:04 37.371579 -118.364243 46 4128ft 3kts
18-Mar-20 12:05 37.372350 -118.363250 46 4128ft 4kts
18-Mar-20 12:07 37.373486 -118.362935 359 4128ft 4kts
18-Mar-20 12:08 37.374779 -118.362912 1 4128ft 4kts
18-Mar-20 12:09 37.376082 -118.362907 0 4128ft 4kts
18-Mar-20 12:10 37.377403 -118.362876 0 4128ft 4kts
18-Mar-20 12:11 37.378731 -118.362863 1 4128ft 4kts
18-Mar-20 12:12 37.379816 -118.362999 21 4128ft 0kts
18-Mar-20 12:13 37.379816 -118.362999 21 4128ft 0kts
18-Mar-20 12:14 37.379940 -118.362893 28 4128ft 1kts
18-Mar-20 12:15 37.380403 -118.362836 0 4128ft 2kts
18-Mar-20 12:16 37.380464 -118.361619 165 4128ft 5kts
18-Mar-20 12:17 37.368735 -118.361719 180 4128ft 98kts
18-Mar-20 12:18 37.344582 -118.361774 179 4888ft 79kts
18-Mar-20 12:19 37.321987 -118.361701 179 5534ft 71kts
18-Mar-20 12:20 37.302671 -118.361837 179 6052ft 73kts
18-Mar-20 12:21 37.291757 -118.343798 75 6386ft 97kts
18-Mar-20 12:22 37.317231 -118.336276 342 6702ft 116kts
18-Mar-20 12:23 37.348123 -118.351339 337 7006ft 120kts
18-Mar-20 12:24 37.379159 -118.367740 336 7304ft 121kts
18-Mar-20 12:25 37.410155 -118.384190 336 7603ft 121kts
18-Mar-20 12:26 37.441097 -118.400630 336 7902ft 120kts
18-Mar-20 12:26 37.466733 -118.414263 335 8151ft 119kts
18-Mar-20 12:28 37.502699 -118.433403 335 8502ft 118kts
18-Mar-20 12:28 37.528063 -118.446914 334 8752ft 117kts
18-Mar-20 12:29 37.557938 -118.462834 334 9048ft 114kts
18-Mar-20 12:31 37.591828 -118.480920 333 9395ft 112kts
18-Mar-20 12:31 37.615618 -118.493627 333 9641ft 111kts
18-Mar-20 12:32 37.643815 -118.508699 332 9938ft 109kts
18-Mar-20 12:33 37.671488 -118.523507 332 10234ft 107kts
18-Mar-20 12:34 37.698977 -118.538227 332 10529ft 106kts
18-Mar-20 12:35 37.728043 -118.553823 333 10522ft 124kts
18-Mar-20 12:36 37.760161 -118.571001 332 10504ft 124kts
18-Mar-20 12:37 37.792125 -118.588161 333 10504ft 123kts
18-Mar-20 12:38 37.824199 -118.605401 333 10504ft 123kts
18-Mar-20 12:39 37.855953 -118.622854 327 10504ft 122kts
18-Mar-20 12:40 37.888019 -118.638545 343 10502ft 125kts
18-Mar-20 12:41 37.922236 -118.648307 343 10503ft 125kts
18-Mar-20 12:42 37.955913 -118.658091 342 10505ft 125kts
18-Mar-20 12:43 37.990302 -118.668135 342 10507ft 125kts
18-Mar-20 12:44 38.024599 -118.678170 342 10505ft 125kts
18-Mar-20 12:45 38.058645 -118.688139 342 10505ft 125kts
18-Mar-20 12:46 38.092735 -118.698138 342 10505ft 125kts
18-Mar-20 12:47 38.126601 -118.708082 342 10505ft 125kts
18-Mar-20 12:48 38.155306 -118.716481 340 11065ft 94kts
18-Mar-20 12:49 38.181265 -118.724221 341 11373ft 98kts
18-Mar-20 12:50 38.208154 -118.732158 341 11679ft 100kts
18-Mar-20 12:51 38.235327 -118.740150 341 11983ft 100kts
18-Mar-20 12:52 38.263042 -118.748335 341 12222ft 104kts
18-Mar-20 12:53 38.292537 -118.757015 342 12357ft 111kts
18-Mar-20 12:54 38.323418 -118.766104 342 12466ft 113kts
18-Mar-20 12:55 38.355093 -118.775459 342 12504ft 118kts
18-Mar-20 12:56 38.387652 -118.785064 342 12504ft 119kts
18-Mar-20 12:57 38.420430 -118.794762 342 12503ft 119kts
18-Mar-20 12:58 38.453699 -118.804623 342 12340ft 128kts
18-Mar-20 12:59 38.489262 -118.815150 342 12045ft 133kts
18-Mar-20 13:00 38.525525 -118.825906 342 11752ft 134kts
18-Mar-20 13:01 38.561901 -118.836712 342 11456ft 135kts
18-Mar-20 13:02 38.598812 -118.847690 342 11157ft 135kts
18-Mar-20 13:03 38.635558 -118.858632 342 10860ft 136kts
18-Mar-20 13:04 38.672231 -118.869556 342 10607ft 134kts
18-Mar-20 13:05 38.707144 -118.879969 341 10508ft 129kts
18-Mar-20 13:06 38.740593 -118.889966 341 10504ft 125kts
18-Mar-20 13:07 38.773684 -118.899873 341 10504ft 125kts
18-Mar-20 13:08 38.805809 -118.909492 341 10504ft 124kts
18-Mar-20 13:09 38.836647 -118.918731 341 10504ft 124kts
18-Mar-20 13:10 38.869657 -118.928629 341 10504ft 124kts
18-Mar-20 13:11 38.901622 -118.938222 341 10504ft 124kts
18-Mar-20 13:12 38.933775 -118.947881 341 10504ft 124kts
18-Mar-20 13:13 38.965959 -118.957561 341 10479ft 126kts
18-Mar-20 13:14 38.991429 -118.977973 313 10477ft 119kts
18-Mar-20 13:15 39.013532 -119.004315 311 10477ft 118kts
18-Mar-20 13:16 39.036155 -119.032173 310 10477ft 118kts
18-Mar-20 13:17 39.058540 -119.060009 310 10477ft 118kts
18-Mar-20 13:18 39.080349 -119.087222 310 10477ft 118kts
18-Mar-20 13:19 39.100520 -119.112430 310 10504ft 117kts
18-Mar-20 13:20 39.121056 -119.138119 310 10503ft 117kts
18-Mar-20 13:21 39.141078 -119.163185 310 10503ft 117kts
18-Mar-20 13:22 39.160255 -119.187214 310 10503ft 117kts
18-Mar-20 13:23 39.177988 -119.209457 310 10484ft 118kts
18-Mar-20 13:25 39.198414 -119.235079 310 10475ft 117kts
18-Mar-20 13:25 39.213633 -119.254195 310 10501ft 115kts
18-Mar-20 13:26 39.231492 -119.276653 310 10502ft 116kts
18-Mar-20 13:27 39.250118 -119.300071 310 10607ft 107kts
18-Mar-20 13:28 39.264541 -119.318182 309 11181ft 75kts
18-Mar-20 13:29 39.275982 -119.332653 309 11523ft 70kts
18-Mar-20 13:30 39.287701 -119.347542 310 11770ft 76kts
18-Mar-20 13:31 39.301757 -119.365374 311 11954ft 88kts
18-Mar-20 13:32 39.317606 -119.385382 312 12183ft 93kts
18-Mar-20 13:33 39.333946 -119.405992 312 12309ft 101kts
18-Mar-20 13:34 39.346665 -119.429422 264 12387ft 104kts
18-Mar-20 13:35 39.338272 -119.460791 251 12472ft 107kts
18-Mar-20 13:36 39.327230 -119.492647 249 12502ft 112kts
18-Mar-20 13:37 39.314890 -119.525813 248 12501ft 113kts
18-Mar-20 13:38 39.302502 -119.558334 248 12501ft 114kts
18-Mar-20 13:39 39.291383 -119.589590 259 12501ft 112kts
18-Mar-20 13:40 39.285854 -119.620976 261 12501ft 112kts
18-Mar-20 13:41 39.280432 -119.653935 261 12502ft 112kts
18-Mar-20 13:42 39.274761 -119.689061 261 12503ft 112kts
18-Mar-20 13:43 39.269335 -119.722833 261 12503ft 112kts
18-Mar-20 13:44 39.264154 -119.755082 261 12503ft 112kts
18-Mar-20 13:45 39.258699 -119.788964 261 12503ft 112kts
18-Mar-20 13:46 39.253456 -119.821466 262 12503ft 112kts
18-Mar-20 13:47 39.248043 -119.854967 262 12503ft 112kts
18-Mar-20 13:48 39.242619 -119.888508 262 12503ft 112kts
18-Mar-20 13:49 39.237014 -119.923110 262 12503ft 112kts
18-Mar-20 13:50 39.231198 -119.958934 262 12502ft 112kts
18-Mar-20 13:51 39.225644 -119.993083 262 12502ft 112kts
18-Mar-20 13:52 39.219897 -120.028322 262 12503ft 112kts
18-Mar-20 13:53 39.214129 -120.063672 262 12502ft 113kts
18-Mar-20 13:54 39.208575 -120.097616 262 12502ft 113kts
18-Mar-20 13:55 39.202878 -120.132360 262 12503ft 113kts
18-Mar-20 13:56 39.197178 -120.167076 262 12501ft 113kts
18-Mar-20 13:57 39.191662 -120.200572 262 12503ft 113kts
18-Mar-20 13:58 39.186350 -120.232792 262 12503ft 113kts
18-Mar-20 13:59 39.180664 -120.265044 250 12500ft 116kts
18-Mar-20 14:00 39.166446 -120.293142 241 12502ft 118kts
18-Mar-20 14:01 39.150980 -120.321234 240 12503ft 118kts
18-Mar-20 14:02 39.135619 -120.348702 238 12502ft 119kts
18-Mar-20 14:03 39.120183 -120.376111 238 12502ft 121kts
18-Mar-20 14:04 39.104017 -120.404739 238 12503ft 121kts
18-Mar-20 14:05 39.088587 -120.432021 238 12504ft 121kts
18-Mar-20 14:06 39.073143 -120.459337 237 12320ft 132kts
18-Mar-20 14:07 39.055419 -120.490591 237 11930ft 138kts
18-Mar-20 14:08 39.037114 -120.522849 237 11527ft 138kts
18-Mar-20 14:09 39.018957 -120.554815 238 11111ft 137kts
18-Mar-20 14:10 39.001952 -120.584719 237 10726ft 136kts
18-Mar-20 14:11 38.986556 -120.611790 237 10378ft 136kts
18-Mar-20 14:12 38.971243 -120.638682 237 10028ft 134kts
18-Mar-20 14:13 38.956265 -120.664967 236 9687ft 133kts
18-Mar-20 14:14 38.940136 -120.693236 235 9314ft 133kts
18-Mar-20 14:16 38.923694 -120.722061 233 8938ft 133kts
18-Mar-20 14:17 38.907189 -120.750913 232 8555ft 134kts
18-Mar-20 14:18 38.890562 -120.779961 231 8191ft 136kts
18-Mar-20 14:19 38.873579 -120.809614 231 7817ft 137kts
18-Mar-20 14:20 38.855813 -120.840635 231 7425ft 143kts
18-Mar-20 14:21 38.836755 -120.873836 232 7031ft 146kts
18-Mar-20 14:22 38.817806 -120.906851 233 6638ft 147kts
18-Mar-20 14:23 38.799070 -120.939456 233 6251ft 146kts
18-Mar-20 14:24 38.780836 -120.971191 232 5874ft 145kts
18-Mar-20 14:25 38.761258 -121.005144 232 5317ft 151kts
18-Mar-20 14:26 38.738220 -121.045098 233 4493ft 153kts
18-Mar-20 14:27 38.712666 -121.065635 153 3987ft 141kts
18-Mar-20 14:28 38.686748 -121.040639 142 4001ft 134kts
18-Mar-20 14:29 38.659583 -121.014967 143 4001ft 134kts
18-Mar-20 14:30 38.637171 -120.979373 85 4000ft 133kts
18-Mar-20 14:30 38.648031 -120.943017 64 4002ft 134kts
18-Mar-20 14:32 38.666728 -120.896625 64 4000ft 114kts
18-Mar-20 14:33 38.678872 -120.866482 65 4001ft 77kts
18-Mar-20 14:33 38.687145 -120.845891 64 3996ft 75kts
18-Mar-20 14:35 38.699140 -120.815963 64 3583ft 75kts
18-Mar-20 14:35 38.708966 -120.791444 64 3171ft 78kts
18-Mar-20 14:37 38.722945 -120.756333 62 2615ft 66kts
18-Mar-20 14:37 38.726500 -120.747675 60 2588ft 2kts
18-Mar-20 14:38 38.726079 -120.749821 242 2588ft 9kts
18-Mar-20 14:39 38.724412 -120.753979 243 2588ft 11kts
18-Mar-20 14:40 38.723145 -120.757121 241 2588ft 4kts
18-Mar-20 14:41 38.723069 -120.757767 148 2588ft 0kts
18-Mar-20 14:42 38.723069 -120.757767 148 2588ft 0kts
18-Mar-20 14:43 38.723069 -120.757767 148 2588ft 0kts
18-Mar-20 14:44 38.723069 -120.757767 148 2588ft 0kts
18-Mar-20 14:45 38.723069 -120.757767 148 2588ft 0kts
18-Mar-20 14:46 38.723069 -120.757767 148 2588ft 0kts
18-Mar-20 14:47 38.723069 -120.757767 148 2588ft 0kts
18-Mar-20 14:48 38.723069 -120.757767 148 2588ft 0kts
18-Mar-20 14:49 38.723069 -120.757767 148 2588ft 0kts
18-Mar-20 14:50 38.723069 -120.757767 148 2588ft 0kts
18-Mar-20 14:51 38.723069 -120.757767 148 2588ft 0kts

Navigation Log

Ident Type
Flight plan parsing failed, navigation log unavailable